Sebastian, Florida
Current Conditions -  °F | °C
As of 8:53 AM on Saturday 20 Dec 2014 (Local Time) from KVRB Reporting Station
Broken Clouds Broken Clouds  
Wind Chill: 66°   Ceiling: 4400
Heat Index: 66°   Visibility: 10mi
Dew Point: 61°   Wind: 3mph
Humidity: 84%   Direction: 280°W
Pressure: 30.13"   Gusts: NA
Location:  27.82°N, 80.47°W
Report Text: KVRB 201353Z 28003KT 10SM SCT032 BKN044 19/16 A3013 RMK AO2 SLP201 T01890161
Loading
Personal Weather Stations






























Interactive Weather Map New forecast layout! Learn more

10-Day Weather Forecast

Advertisements
Track Severe Weather on mobile